sensor_id;sensor_type;location;lat;lon;timestamp;pressure;altitude;pressure_sealevel;temperature;humidity
46614;BME280;32338;50.430;6.806;2023-02-25T00:00:16;65478.63;;;0.51;100.00
46614;BME280;32338;50.430;6.806;2023-02-25T00:02:44;65476.59;;;0.51;100.00
46614;BME280;32338;50.430;6.806;2023-02-25T00:05:13;65481.41;;;0.53;100.00
46614;BME280;32338;50.430;6.806;2023-02-25T00:07:40;65484.41;;;0.58;100.00
46614;BME280;32338;50.430;6.806;2023-02-25T00:10:10;65484.41;;;0.58;100.00
46614;BME280;32338;50.430;6.806;2023-02-25T00:12:38;65487.09;;;0.66;100.00
46614;BME280;32338;50.430;6.806;2023-02-25T00:15:08;65488.53;;;0.64;100.00
46614;BME280;32338;50.430;6.806;2023-02-25T00:17:36;65490.56;;;0.64;100.00
46614;BME280;32338;50.430;6.806;2023-02-25T00:20:05;65495.59;;;0.69;100.00
46614;BME280;32338;50.430;6.806;2023-02-25T00:22:35;65517.38;;;0.89;100.00
46614;BME280;32338;50.430;6.806;2023-02-25T00:25:03;65511.03;;;0.80;100.00
46614;BME280;32338;50.430;6.806;2023-02-25T00:27:30;65502.84;;;0.75;100.00
46614;BME280;32338;50.430;6.806;2023-02-25T00:29:59;65500.41;;;0.71;100.00
46614;BME280;32338;50.430;6.806;2023-02-25T00:32:26;65498.72;;;0.69;100.00
46614;BME280;32338;50.430;6.806;2023-02-25T00:34:53;65500.41;;;0.71;100.00
46614;BME280;32338;50.430;6.806;2023-02-25T00:37:21;65495.94;;;0.67;100.00
46614;BME280;32338;50.430;6.806;2023-02-25T00:39:50;65492.25;;;0.66;100.00
46614;BME280;32338;50.430;6.806;2023-02-25T00:42:17;65491.13;;;0.64;100.00
46614;BME280;32338;50.430;6.806;2023-02-25T00:44:46;65494.81;;;0.66;100.00
46614;BME280;32338;50.430;6.806;2023-02-25T00:47:14;65493.69;;;0.64;100.00
46614;BME280;32338;50.430;6.806;2023-02-25T00:49:43;65497.41;;;0.66;100.00
46614;BME280;32338;50.430;6.806;2023-02-25T00:52:11;65489.66;;;0.66;100.00
46614;BME280;32338;50.430;6.806;2023-02-25T00:54:38;65488.34;;;0.62;100.00
46614;BME280;32338;50.430;6.806;2023-02-25T00:57:06;65487.22;;;0.61;100.00
46614;BME280;32338;50.430;6.806;2023-02-25T00:59:33;65490.38;;;0.61;100.00
46614;BME280;32338;50.430;6.806;2023-02-25T01:02:01;65498.38;;;0.71;100.00
46614;BME280;32338;50.430;6.806;2023-02-25T01:04:27;65497.03;;;0.68;100.00
46614;BME280;32338;50.430;6.806;2023-02-25T01:06:54;65489.44;;;0.63;100.00
46614;BME280;32338;50.430;6.806;2023-02-25T01:09:21;65491.69;;;0.65;100.00
46614;BME280;32338;50.430;6.806;2023-02-25T01:11:48;65487.44;;;0.63;100.00
46614;BME280;32338;50.430;6.806;2023-02-25T01:14:18;65492.78;;;0.66;100.00
46614;BME280;32338;50.430;6.806;2023-02-25T01:16:48;65489.78;;;0.61;100.00
46614;BME280;32338;50.430;6.806;2023-02-25T01:19:17;65483.31;;;0.57;100.00
46614;BME280;32338;50.430;6.806;2023-02-25T01:21:46;65484.97;;;0.59;100.00
46614;BME280;32338;50.430;6.806;2023-02-25T01:24:15;65477.59;;;0.57;100.00
46614;BME280;32338;50.430;6.806;2023-02-25T01:26:44;65483.31;;;0.57;100.00
46614;BME280;32338;50.430;6.806;2023-02-25T01:29:14;65482.41;;;0.59;100.00
46614;BME280;32338;50.430;6.806;2023-02-25T01:31:43;65485.88;;;0.57;100.00
46614;BME280;32338;50.430;6.806;2023-02-25T01:34:13;65476.06;;;0.51;100.00
46614;BME280;32338;50.430;6.806;2023-02-25T01:36:40;65471.81;;;0.49;100.00
46614;BME280;32338;50.430;6.806;2023-02-25T01:39:11;65472.13;;;0.47;100.00
46614;BME280;32338;50.430;6.806;2023-02-25T01:41:38;65468.66;;;0.48;100.00
46614;BME280;32338;50.430;6.806;2023-02-25T01:44:10;65473.59;;;0.46;100.00
46614;BME280;32338;50.430;6.806;2023-02-25T01:46:39;65468.22;;;0.43;100.00
46614;BME280;32338;50.430;6.806;2023-02-25T01:49:10;65468.56;;;0.41;100.00
46614;BME280;32338;50.430;6.806;2023-02-25T01:51:39;65465.44;;;0.41;100.00
46614;BME280;32338;50.430;6.806;2023-02-25T01:54:08;65466.00;;;0.41;100.00
46614;BME280;32338;50.430;6.806;2023-02-25T01:56:38;65471.03;;;0.46;100.00
46614;BME280;32338;50.430;6.806;2023-02-25T01:59:07;65466.78;;;0.44;100.00
46614;BME280;32338;50.430;6.806;2023-02-25T02:01:37;65468.22;;;0.43;100.00
46614;BME280;32338;50.430;6.806;2023-02-25T02:04:08;65468.81;;;0.44;100.00
46614;BME280;32338;50.430;6.806;2023-02-25T02:06:37;65465.09;;;0.43;100.00
46614;BME280;32338;50.430;6.806;2023-02-25T02:09:10;65473.06;;;0.45;100.00
46614;BME280;32338;50.430;6.806;2023-02-25T02:11:37;65470.25;;;0.43;100.00
46614;BME280;32338;50.430;6.806;2023-02-25T02:14:06;65463.56;;;0.37;100.00
46614;BME280;32338;50.430;6.806;2023-02-25T02:16:58;65465.78;;;0.39;100.00
46614;BME280;32338;50.430;6.806;2023-02-25T02:19:45;65463.19;;;0.39;100.00
46614;BME280;32338;50.430;6.806;2023-02-25T02:22:17;65461.88;;;0.35;100.00
46614;BME280;32338;50.430;6.806;2023-02-25T02:28:15;65452.81;;;0.31;100.00
46614;BME280;32338;50.430;6.806;2023-02-25T02:31:07;65458.53;;;0.32;100.00
46614;BME280;32338;50.430;6.806;2023-02-25T02:33:41;65470.81;;;0.43;100.00
46614;BME280;32338;50.430;6.806;2023-02-25T02:36:16;65469.13;;;0.42;100.00
46614;BME280;32338;50.430;6.806;2023-02-25T02:38:49;65459.88;;;0.36;100.00
46614;BME280;32338;50.430;6.806;2023-02-25T02:41:25;65456.50;;;0.32;100.00
46614;BME280;32338;50.430;6.806;2023-02-25T02:43:57;65450.16;;;0.24;100.00
46614;BME280;32338;50.430;6.806;2023-02-25T02:46:33;65443.69;;;0.21;100.00
46614;BME280;32338;50.430;6.806;2023-02-25T02:49:05;65442.75;;;0.22;100.00
46614;BME280;32338;50.430;6.806;2023-02-25T02:51:39;65445.56;;;0.25;100.00
46614;BME280;32338;50.430;6.806;2023-02-25T02:54:11;65441.66;;;0.21;100.00
46614;BME280;32338;50.430;6.806;2023-02-25T02:56:41;65442.75;;;0.22;100.00
46614;BME280;32338;50.430;6.806;2023-02-25T02:59:14;65444.00;;;0.19;100.00
46614;BME280;32338;50.430;6.806;2023-02-25T03:01:49;65438.84;;;0.19;100.00
46614;BME280;32338;50.430;6.806;2023-02-25T03:04:20;65453.16;;;0.29;100.00
46614;BME280;32338;50.430;6.806;2023-02-25T03:06:51;65457.41;;;0.31;100.00
46614;BME280;32338;50.430;6.806;2023-02-25T03:09:23;65457.97;;;0.31;100.00
46614;BME280;32338;50.430;6.806;2023-02-25T03:11:51;65452.63;;;0.29;100.00
46614;BME280;32338;50.430;6.806;2023-02-25T03:14:18;65461.31;;;0.35;100.00
46614;BME280;32338;50.430;6.806;2023-02-25T03:16:51;65457.63;;;0.34;100.00
46614;BME280;32338;50.430;6.806;2023-02-25T03:19:22;65457.97;;;0.31;100.00
46614;BME280;32338;50.430;6.806;2023-02-25T03:21:53;65453.72;;;0.30;100.00
46614;BME280;32338;50.430;6.806;2023-02-25T03:24:23;65467.13;;;0.42;100.00
46614;BME280;32338;50.430;6.806;2023-02-25T03:26:53;65453.72;;;0.30;100.00
46614;BME280;32338;50.430;6.806;2023-02-25T03:29:21;65456.84;;;0.30;100.00
46614;BME280;32338;50.430;6.806;2023-02-25T03:31:54;65447.25;;;0.26;100.00
46614;BME280;32338;50.430;6.806;2023-02-25T03:34:25;65452.94;;;0.27;100.00
46614;BME280;32338;50.430;6.806;2023-02-25T03:36:56;65455.75;;;0.29;100.00
46614;BME280;32338;50.430;6.806;2023-02-25T03:39:27;65451.13;;;0.30;100.00
46614;BME280;32338;50.430;6.806;2023-02-25T03:41:57;65455.19;;;0.29;100.00
46614;BME280;32338;50.430;6.806;2023-02-25T03:44:26;65464.88;;;0.40;100.00
46614;BME280;32338;50.430;6.806;2023-02-25T03:46:56;65461.88;;;0.35;100.00
46614;BME280;32338;50.430;6.806;2023-02-25T03:49:26;65469.13;;;0.42;100.00
46614;BME280;32338;50.430;6.806;2023-02-25T03:51:55;65458.19;;;0.34;100.00
46614;BME280;32338;50.430;6.806;2023-02-25T03:54:24;65456.50;;;0.32;100.00
46614;BME280;32338;50.430;6.806;2023-02-25T03:56:51;65461.75;;;0.40;100.00
46614;BME280;32338;50.430;6.806;2023-02-25T03:59:19;65455.94;;;0.32;100.00
46614;BME280;32338;50.430;6.806;2023-02-25T04:01:48;65457.19;;;0.28;100.00
46614;BME280;32338;50.430;6.806;2023-02-25T04:04:19;65448.91;;;0.28;100.00
46614;BME280;32338;50.430;6.806;2023-02-25T04:06:45;65453.50;;;0.27;100.00
46614;BME280;32338;50.430;6.806;2023-02-25T04:09:12;65450.91;;;0.27;100.00
46614;BME280;32338;50.430;6.806;2023-02-25T04:11:40;65453.72;;;0.30;100.00
46614;BME280;32338;50.430;6.806;2023-02-25T04:14:06;65458.31;;;0.29;100.00
46614;BME280;32338;50.430;6.806;2023-02-25T04:16:34;65450.91;;;0.27;100.00
46614;BME280;32338;50.430;6.806;2023-02-25T04:19:02;65449.81;;;0.26;100.00
46614;BME280;32338;50.430;6.806;2023-02-25T04:21:32;65451.28;;;0.25;100.00
46614;BME280;32338;50.430;6.806;2023-02-25T04:24:00;65453.28;;;0.25;100.00
46614;BME280;32338;50.430;6.806;2023-02-25T04:26:27;65448.91;;;0.28;100.00
46614;BME280;32338;50.430;6.806;2023-02-25T04:28:54;65449.13;;;0.30;100.00
46614;BME280;32338;50.430;6.806;2023-02-25T04:31:21;65452.41;;;0.26;100.00
46614;BME280;32338;50.430;6.806;2023-02-25T04:33:48;65458.19;;;0.34;100.00
46614;BME280;32338;50.430;6.806;2023-02-25T04:36:26;65454.84;;;0.31;100.00
46614;BME280;32338;50.430;6.806;2023-02-25T04:38:55;65463.19;;;0.39;100.00
46614;BME280;32338;50.430;6.806;2023-02-25T04:41:23;65459.88;;;0.36;100.00
46614;BME280;32338;50.430;6.806;2023-02-25T04:43:49;65456.84;;;0.30;100.00
46614;BME280;32338;50.430;6.806;2023-02-25T04:46:16;65452.03;;;0.28;100.00
46614;BME280;32338;50.430;6.806;2023-02-25T04:48:43;65452.75;;;0.24;100.00
46614;BME280;32338;50.430;6.806;2023-02-25T04:51:10;65450.72;;;0.25;100.00
46614;BME280;32338;50.430;6.806;2023-02-25T04:53:38;65443.13;;;0.20;100.00
46614;BME280;32338;50.430;6.806;2023-02-25T04:56:08;65438.66;;;0.16;100.00
46614;BME280;32338;50.430;6.806;2023-02-25T04:58:36;65439.22;;;0.17;100.00
46614;BME280;32338;50.430;6.806;2023-02-25T05:01:04;65436.75;;;0.12;100.00
46614;BME280;32338;50.430;6.806;2023-02-25T05:03:33;65425.13;;;0.08;100.00
46614;BME280;32338;50.430;6.806;2023-02-25T05:06:01;65435.78;;;0.06;100.00
46614;BME280;32338;50.430;6.806;2023-02-25T05:08:28;65426.72;;;0.03;100.00
46614;BME280;32338;50.430;6.806;2023-02-25T05:10:55;65423.38;;;-0.01;100.00
46614;BME280;32338;50.430;6.806;2023-02-25T05:13:23;65415.44;;;-0.03;100.00
46614;BME280;32338;50.430;6.806;2023-02-25T05:15:50;65414.88;;;-0.04;100.00
46614;BME280;32338;50.430;6.806;2023-02-25T05:18:17;65423.50;;;-0.05;100.00
46614;BME280;32338;50.430;6.806;2023-02-25T05:20:45;65415.22;;;-0.06;100.00
46614;BME280;32338;50.430;6.806;2023-02-25T05:23:13;65414.09;;;-0.07;100.00
46614;BME280;32338;50.430;6.806;2023-02-25T05:25:40;65411.84;;;-0.09;100.00
46614;BME280;32338;50.430;6.806;2023-02-25T05:28:06;65407.97;;;-0.12;100.00
46614;BME280;32338;50.430;6.806;2023-02-25T05:30:36;65408.84;;;-0.14;100.00
46614;BME280;32338;50.430;6.806;2023-02-25T05:33:04;65407.41;;;-0.13;100.00
46614;BME280;32338;50.430;6.806;2023-02-25T05:35:33;65403.16;;;-0.14;100.00
46614;BME280;32338;50.430;6.806;2023-02-25T05:38:00;65407.41;;;-0.13;100.00
46614;BME280;32338;50.430;6.806;2023-02-25T05:40:27;65409.06;;;-0.11;100.00
46614;BME280;32338;50.430;6.806;2023-02-25T05:42:54;65407.06;;;-0.11;100.00
46614;BME280;32338;50.430;6.806;2023-02-25T05:45:20;65412.97;;;-0.08;100.00
46614;BME280;32338;50.430;6.806;2023-02-25T05:47:49;65412.22;;;-0.11;100.00
46614;BME280;32338;50.430;6.806;2023-02-25T05:50:17;65404.81;;;-0.13;100.00
46614;BME280;32338;50.430;6.806;2023-02-25T05:52:43;65408.31;;;-0.14;100.00
46614;BME280;32338;50.430;6.806;2023-02-25T05:55:11;65406.28;;;-0.14;100.00
46614;BME280;32338;50.430;6.806;2023-02-25T05:57:38;65411.44;;;-0.14;100.00
46614;BME280;32338;50.430;6.806;2023-02-25T06:00:06;65409.97;;;-0.13;100.00
46614;BME280;32338;50.430;6.806;2023-02-25T06:02:34;65413.88;;;-0.09;100.00
46614;BME280;32338;50.430;6.806;2023-02-25T06:05:04;65406.63;;;-0.16;100.00
46614;BME280;32338;50.430;6.806;2023-02-25T06:07:31;65403.50;;;-0.17;100.00
46614;BME280;32338;50.430;6.806;2023-02-25T06:09:59;65414.44;;;-0.09;100.00
46614;BME280;32338;50.430;6.806;2023-02-25T06:12:27;65408.31;;;-0.14;100.00
46614;BME280;32338;50.430;6.806;2023-02-25T06:14:55;65407.75;;;-0.15;100.00
46614;BME280;32338;50.430;6.806;2023-02-25T06:17:22;65405.50;;;-0.17;100.00
46614;BME280;32338;50.430;6.806;2023-02-25T06:19:50;65407.53;;;-0.18;100.00
46614;BME280;32338;50.430;6.806;2023-02-25T06:22:18;65401.28;;;-0.19;100.00
46614;BME280;32338;50.430;6.806;2023-02-25T06:24:45;65393.66;;;-0.23;100.00
46614;BME280;32338;50.430;6.806;2023-02-25T06:27:13;65402.16;;;-0.20;100.00
46614;BME280;32338;50.430;6.806;2023-02-25T06:29:40;65396.78;;;-0.23;100.00
46614;BME280;32338;50.430;6.806;2023-02-25T06:32:07;65397.16;;;-0.25;100.00
46614;BME280;32338;50.430;6.806;2023-02-25T06:34:34;65394.56;;;-0.25;100.00
46614;BME280;32338;50.430;6.806;2023-02-25T06:37:01;65402.59;;;-0.15;100.00
46614;BME280;32338;50.430;6.806;2023-02-25T06:39:29;65401.28;;;-0.19;100.00
46614;BME280;32338;50.430;6.806;2023-02-25T06:41:57;65404.41;;;-0.18;100.00
46614;BME280;32338;50.430;6.806;2023-02-25T06:44:24;65401.81;;;-0.18;100.00
46614;BME280;32338;50.430;6.806;2023-02-25T06:46:53;65400.69;;;-0.19;100.00
46614;BME280;32338;50.430;6.806;2023-02-25T06:49:21;65404.94;;;-0.18;100.00
46614;BME280;32338;50.430;6.806;2023-02-25T06:51:48;65398.69;;;-0.19;100.00
46614;BME280;32338;50.430;6.806;2023-02-25T06:54:15;65405.94;;;-0.12;100.00
46614;BME280;32338;50.430;6.806;2023-02-25T06:56:44;65405.94;;;-0.12;100.00
46614;BME280;32338;50.430;6.806;2023-02-25T06:59:11;65406.50;;;-0.11;100.00
46614;BME280;32338;50.430;6.806;2023-02-25T07:01:38;65406.50;;;-0.11;100.00
46614;BME280;32338;50.430;6.806;2023-02-25T07:04:05;65407.06;;;-0.11;100.00
46614;BME280;32338;50.430;6.806;2023-02-25T07:06:34;65423.38;;;-0.01;100.00
46614;BME280;32338;50.430;6.806;2023-02-25T07:09:01;65425.81;;;0.04;100.00
46614;BME280;32338;50.430;6.806;2023-02-25T07:11:30;65418.22;;;-0.01;100.00
46614;BME280;32338;50.430;6.806;2023-02-25T07:14:00;65422.81;;;-0.01;100.00
46614;BME280;32338;50.430;6.806;2023-02-25T07:16:28;65421.38;;;0.00;100.00
46614;BME280;32338;50.430;6.806;2023-02-25T07:18:59;65424.81;;;-0.02;100.00
46614;BME280;32338;50.430;6.806;2023-02-25T07:21:29;65428.53;;;-0.01;100.00
46614;BME280;32338;50.430;6.806;2023-02-25T07:23:58;65422.81;;;-0.01;100.00
46614;BME280;32338;50.430;6.806;2023-02-25T07:26:25;65426.16;;;0.02;100.00
46614;BME280;32338;50.430;6.806;2023-02-25T07:28:53;65436.75;;;0.12;100.00
46614;BME280;32338;50.430;6.806;2023-02-25T07:31:22;65437.53;;;0.15;100.00
46614;BME280;32338;50.430;6.806;2023-02-25T07:33:50;65435.66;;;0.11;100.00
46614;BME280;32338;50.430;6.806;2023-02-25T07:36:17;65433.75;;;0.07;100.00
46614;BME280;32338;50.430;6.806;2023-02-25T07:38:46;65430.41;;;0.04;100.00
46614;BME280;32338;50.430;6.806;2023-02-25T07:41:15;65438.22;;;0.11;100.00
46614;BME280;32338;50.430;6.806;2023-02-25T07:43:43;65426.03;;;0.07;100.00
46614;BME280;32338;50.430;6.806;2023-02-25T07:46:10;65429.72;;;0.08;100.00
46614;BME280;32338;50.430;6.806;2023-02-25T07:48:42;65430.84;;;0.09;100.00
46614;BME280;32338;50.430;6.806;2023-02-25T07:51:12;65430.28;;;0.08;100.00
46614;BME280;32338;50.430;6.806;2023-02-25T07:53:41;65437.53;;;0.15;100.00
46614;BME280;32338;50.430;6.806;2023-02-25T07:56:09;65435.66;;;0.11;100.00
46614;BME280;32338;50.430;6.806;2023-02-25T07:58:38;65434.19;;;0.12;100.00
46614;BME280;32338;50.430;6.806;2023-02-25T08:01:07;65447.91;;;0.22;100.00
46614;BME280;32338;50.430;6.806;2023-02-25T08:03:35;65444.91;;;0.17;100.00
46614;BME280;32338;50.430;6.806;2023-02-25T08:06:05;65439.22;;;0.17;100.00
46614;BME280;32338;50.430;6.806;2023-02-25T08:08:33;65440.09;;;0.15;100.00
46614;BME280;32338;50.430;6.806;2023-02-25T08:11:04;65441.78;;;0.17;100.00
46614;BME280;32338;50.430;6.806;2023-02-25T08:13:31;65449.38;;;0.21;100.00
46614;BME280;32338;50.430;6.806;2023-02-25T08:15:58;65444.00;;;0.19;100.00
46614;BME280;32338;50.430;6.806;2023-02-25T08:18:26;65439.75;;;0.17;100.00
46614;BME280;32338;50.430;6.806;2023-02-25T08:20:53;65437.53;;;0.15;100.00
46614;BME280;32338;50.430;6.806;2023-02-25T08:53:39;65497.50;;;0.73;100.00
46614;BME280;32338;50.430;6.806;2023-02-25T08:56:07;65502.84;;;0.75;100.00
46614;BME280;32338;50.430;6.806;2023-02-25T08:58:35;65504.94;;;0.82;100.00
46614;BME280;32338;50.430;6.806;2023-02-25T09:01:05;65526.09;;;0.94;100.00
46614;BME280;32338;50.430;6.806;2023-02-25T09:03:37;65535.81;;;1.06;100.00
46614;BME280;32338;50.430;6.806;2023-02-25T09:06:07;65542.28;;;1.09;100.00
46614;BME280;32338;50.430;6.806;2023-02-25T09:08:33;65540.06;;;1.07;100.00
46614;BME280;32338;50.430;6.806;2023-02-25T09:11:05;65539.72;;;1.09;100.00
46614;BME280;32338;50.430;6.806;2023-02-25T09:13:32;65537.47;;;1.07;100.00
46614;BME280;32338;50.430;6.806;2023-02-25T09:15:59;65529.88;;;1.03;100.00
46614;BME280;32338;50.430;6.806;2023-02-25T09:18:27;65518.69;;;0.92;100.00
46614;BME280;32338;50.430;6.806;2023-02-25T09:20:55;65521.63;;;0.90;100.00
46614;BME280;32338;50.430;6.806;2023-02-25T09:23:22;65516.03;;;0.85;100.00
46614;BME280;32338;50.430;6.806;2023-02-25T09:25:49;65517.56;;;0.91;100.00
46614;BME280;32338;50.430;6.806;2023-02-25T09:28:17;65512.13;;;0.82;100.00
46614;BME280;32338;50.430;6.806;2023-02-25T09:30:44;65511.44;;;0.86;100.00
46614;BME280;32338;50.430;6.806;2023-02-25T09:33:12;65526.09;;;0.94;100.00
46614;BME280;32338;50.430;6.806;2023-02-25T09:35:41;65528.13;;;0.94;100.00
46614;BME280;32338;50.430;6.806;2023-02-25T09:38:09;65531.13;;;0.99;100.00
46614;BME280;32338;50.430;6.806;2023-02-25T09:40:38;65545.63;;;1.12;100.00
46614;BME280;32338;50.430;6.806;2023-02-25T09:43:20;65555.13;;;1.21;100.00
46614;BME280;32338;50.430;6.806;2023-02-25T09:45:48;65557.25;;;1.28;100.00
46614;BME280;32338;50.430;6.806;2023-02-25T09:48:18;65570.56;;;1.33;100.00
46614;BME280;32338;50.430;6.806;2023-02-25T09:50:52;65569.13;;;1.34;100.00
46614;BME280;32338;50.430;6.806;2023-02-25T09:53:24;65570.66;;;1.40;100.00
46614;BME280;32338;50.430;6.806;2023-02-25T09:55:53;65580.84;;;1.45;100.00
46614;BME280;32338;50.430;6.806;2023-02-25T09:58:24;65590.56;;;1.56;100.00
46614;BME280;32338;50.430;6.806;2023-02-25T10:00:58;65583.84;;;1.50;100.00
46614;BME280;32338;50.430;6.806;2023-02-25T10:03:39;65566.53;;;1.34;100.00
46614;BME280;32338;50.430;6.806;2023-02-25T10:06:16;65560.59;;;1.31;100.00
46614;BME280;32338;50.430;6.806;2023-02-25T10:08:51;65569.88;;;1.37;100.00
46614;BME280;32338;50.430;6.806;2023-02-25T10:11:28;65557.59;;;1.26;100.00
46614;BME280;32338;50.430;6.806;2023-02-25T10:16:58;65538.03;;;1.08;100.00
46614;BME280;32338;50.430;6.806;2023-02-25T10:19:38;65533.00;;;1.03;100.00
46614;BME280;32338;50.430;6.806;2023-02-25T10:22:19;65543.06;;;1.12;100.00
46614;BME280;32338;50.430;6.806;2023-02-25T10:24:54;65576.38;;;1.41;100.00
46614;BME280;32338;50.430;6.806;2023-02-25T10:27:26;65591.66;;;1.57;100.00
46614;BME280;32338;50.430;6.806;2023-02-25T10:30:00;65594.81;;;1.58;100.00
46614;BME280;32338;50.430;6.806;2023-02-25T10:32:31;65594.97;;;1.53;100.00
46614;BME280;32338;50.430;6.806;2023-02-25T10:35:13;65585.16;;;1.54;100.00
46614;BME280;32338;50.430;6.806;2023-02-25T10:37:42;65589.09;;;1.57;100.00
46614;BME280;32338;50.430;6.806;2023-02-25T10:40:14;65589.78;;;1.53;100.00
46614;BME280;32338;50.430;6.806;2023-02-25T10:42:44;65587.00;;;1.51;100.00
46614;BME280;32338;50.430;6.806;2023-02-25T10:45:19;65586.88;;;1.55;100.00
46614;BME280;32338;50.430;6.806;2023-02-25T10:47:50;65589.44;;;1.55;100.00
46614;BME280;32338;50.430;6.806;2023-02-25T10:50:22;65595.94;;;1.59;100.00
46614;BME280;32338;50.430;6.806;2023-02-25T10:52:56;65604.88;;;1.67;100.00
46614;BME280;32338;50.430;6.806;2023-02-25T10:55:29;65612.34;;;1.76;100.00
46614;BME280;32338;50.430;6.806;2023-02-25T10:57:59;65612.56;;;1.79;100.00
46614;BME280;32338;50.430;6.806;2023-02-25T11:00:29;65618.84;;;1.80;100.00
46614;BME280;32338;50.430;6.806;2023-02-25T11:02:58;65623.13;;;1.82;100.00
46614;BME280;32338;50.430;6.806;2023-02-25T11:05:36;65607.13;;;1.69;100.00
46614;BME280;32338;50.430;6.806;2023-02-25T11:08:05;65593.91;;;1.59;100.00
46614;BME280;32338;50.430;6.806;2023-02-25T11:10:59;65595.59;;;1.61;100.00
46614;BME280;32338;50.430;6.806;2023-02-25T11:13:27;65585.66;;;1.47;100.00
46614;BME280;32338;50.430;6.806;2023-02-25T11:15:58;65564.50;;;1.35;100.00
46614;BME280;32338;50.430;6.806;2023-02-25T11:18:30;65568.97;;;1.39;100.00
46614;BME280;32338;50.430;6.806;2023-02-25T11:20:59;65569.31;;;1.37;100.00
46614;BME280;32338;50.430;6.806;2023-02-25T11:23:31;65577.72;;;1.44;100.00
46614;BME280;32338;50.430;6.806;2023-02-25T11:25:58;65587.75;;;1.54;100.00
46614;BME280;32338;50.430;6.806;2023-02-25T11:28:28;65611.44;;;1.78;100.00
46614;BME280;32338;50.430;6.806;2023-02-25T11:31:06;65636.97;;;1.99;100.00
46614;BME280;32338;50.430;6.806;2023-02-25T11:33:36;65657.84;;;2.21;100.00
46614;BME280;32338;50.430;6.806;2023-02-25T11:36:06;65673.09;;;2.30;100.00
46614;BME280;32338;50.430;6.806;2023-02-25T11:38:34;65677.56;;;2.34;100.00
46614;BME280;32338;50.430;6.806;2023-02-25T11:41:02;65684.69;;;2.46;100.00
46614;BME280;32338;50.430;6.806;2023-02-25T11:43:35;65688.75;;;2.45;100.00
46614;BME280;32338;50.430;6.806;2023-02-25T11:46:10;65690.63;;;2.49;100.00
46614;BME280;32338;50.430;6.806;2023-02-25T11:48:45;65715.59;;;2.69;100.00
46614;BME280;32338;50.430;6.806;2023-02-25T11:51:22;65751.81;;;3.07;100.00
46614;BME280;32338;50.430;6.806;2023-02-25T11:54:09;65768.41;;;3.20;100.00
46614;BME280;32338;50.430;6.806;2023-02-25T11:56:40;65786.69;;;3.35;100.00
46614;BME280;32338;50.430;6.806;2023-02-25T11:59:25;65737.28;;;2.94;100.00
46614;BME280;32338;50.430;6.806;2023-02-25T12:02:18;65685.25;;;2.46;100.00
46614;BME280;32338;50.430;6.806;2023-02-25T12:05:15;65646.25;;;2.05;100.00
46614;BME280;32338;50.430;6.806;2023-02-25T12:07:57;65619.63;;;1.83;100.00
46614;BME280;32338;50.430;6.806;2023-02-25T12:10:45;65602.09;;;1.65;100.00
46614;BME280;32338;50.430;6.806;2023-02-25T12:16:55;65614.59;;;1.78;100.00
46614;BME280;32338;50.430;6.806;2023-02-25T12:20:02;65596.38;;;1.64;100.00
46614;BME280;32338;50.430;6.806;2023-02-25T12:25:35;65548.63;;;1.18;100.00
46614;BME280;32338;50.430;6.806;2023-02-25T12:28:24;65524.97;;;0.93;100.00
46614;BME280;32338;50.430;6.806;2023-02-25T12:31:18;65514.56;;;0.86;100.00
46614;BME280;32338;50.430;6.806;2023-02-25T12:34:21;65530.00;;;0.98;100.00
46614;BME280;32338;50.430;6.806;2023-02-25T12:40:06;65541.59;;;1.13;100.00
46614;BME280;32338;50.430;6.806;2023-02-25T12:42:45;65552.22;;;1.23;100.00
46614;BME280;32338;50.430;6.806;2023-02-25T12:48:36;65578.81;;;1.45;100.00
46614;BME280;32338;50.430;6.806;2023-02-25T12:51:35;65606.22;;;1.71;100.00
46614;BME280;32338;50.430;6.806;2023-02-25T12:54:19;65640.84;;;2.03;100.00
46614;BME280;32338;50.430;6.806;2023-02-25T13:00:02;65657.28;;;2.20;100.00
46614;BME280;32338;50.430;6.806;2023-02-25T13:03:01;65683.16;;;2.39;100.00
46614;BME280;32338;50.430;6.806;2023-02-25T13:05:54;65685.03;;;2.43;100.00
46614;BME280;32338;50.430;6.806;2023-02-25T13:08:43;65700.13;;;2.57;100.00
46614;BME280;32338;50.430;6.806;2023-02-25T13:11:25;65666.72;;;2.22;100.00
46614;BME280;32338;50.430;6.806;2023-02-25T13:14:17;65675.53;;;2.35;100.00
46614;BME280;32338;50.430;6.806;2023-02-25T13:17:19;65671.75;;;2.26;100.00
46614;BME280;32338;50.430;6.806;2023-02-25T13:20:06;65648.69;;;2.10;100.00
46614;BME280;32338;50.430;6.806;2023-02-25T13:22:55;65626.88;;;1.90;100.00
46614;BME280;32338;50.430;6.806;2023-02-25T13:25:43;65620.75;;;1.84;100.00
46614;BME280;32338;50.430;6.806;2023-02-25T13:31:17;65583.84;;;1.50;100.00
46614;BME280;32338;50.430;6.806;2023-02-25T13:33:54;65591.66;;;1.57;100.00
46614;BME280;32338;50.430;6.806;2023-02-25T13:36:38;65602.09;;;1.65;100.00
46614;BME280;32338;50.430;6.806;2023-02-25T13:39:33;65587.97;;;1.56;100.00
46614;BME280;32338;50.430;6.806;2023-02-25T13:42:21;65585.53;;;1.52;100.00
46614;BME280;32338;50.430;6.806;2023-02-25T13:45:28;65579.38;;;1.46;100.00
46614;BME280;32338;50.430;6.806;2023-02-25T13:48:06;65538.03;;;1.08;100.00
46614;BME280;32338;50.430;6.806;2023-02-25T13:50:51;65537.47;;;1.07;100.00
46614;BME280;32338;50.430;6.806;2023-02-25T13:53:41;65558.13;;;1.26;100.00
46614;BME280;32338;50.430;6.806;2023-02-25T13:56:36;65579.59;;;1.49;100.00
46614;BME280;32338;50.430;6.806;2023-02-25T13:59:41;65608.09;;;1.75;100.00
46614;BME280;32338;50.430;6.806;2023-02-25T14:02:32;65613.63;;;1.73;100.00
46614;BME280;32338;50.430;6.806;2023-02-25T14:05:38;65622.63;;;1.88;100.00
46614;BME280;32338;50.430;6.806;2023-02-25T14:08:22;65627.09;;;1.92;100.00
46614;BME280;32338;50.430;6.806;2023-02-25T14:10:53;65613.13;;;1.80;100.00
46614;BME280;32338;50.430;6.806;2023-02-25T14:13:45;65627.47;;;1.90;100.00
46614;BME280;32338;50.430;6.806;2023-02-25T14:16:26;65629.13;;;1.92;100.00
46614;BME280;32338;50.430;6.806;2023-02-25T14:19:11;65618.16;;;1.84;100.00